sensor_id;sensor_type;location;lat;lon;timestamp;temperature;humidity
29917;DHT22;16786;49.466;11.068;2022-12-07T00:01:28;3.00;99.90
29917;DHT22;16786;49.466;11.068;2022-12-07T00:03:57;3.00;99.90
29917;DHT22;16786;49.466;11.068;2022-12-07T00:06:27;3.00;99.90
29917;DHT22;16786;49.466;11.068;2022-12-07T00:08:55;3.00;99.90
29917;DHT22;16786;49.466;11.068;2022-12-07T00:11:23;2.90;99.90
29917;DHT22;16786;49.466;11.068;2022-12-07T00:13:53;2.90;99.90
29917;DHT22;16786;49.466;11.068;2022-12-07T00:16:24;2.90;99.90
29917;DHT22;16786;49.466;11.068;2022-12-07T00:18:52;2.90;99.90
29917;DHT22;16786;49.466;11.068;2022-12-07T00:21:29;2.90;99.90
29917;DHT22;16786;49.466;11.068;2022-12-07T00:23:56;2.90;99.90
29917;DHT22;16786;49.466;11.068;2022-12-07T00:26:27;2.90;99.90
29917;DHT22;16786;49.466;11.068;2022-12-07T00:28:59;2.80;99.90
29917;DHT22;16786;49.466;11.068;2022-12-07T00:31:29;2.80;99.90
29917;DHT22;16786;49.466;11.068;2022-12-07T00:33:57;2.90;99.90
29917;DHT22;16786;49.466;11.068;2022-12-07T00:36:26;2.90;99.90
29917;DHT22;16786;49.466;11.068;2022-12-07T00:38:55;2.90;99.90
29917;DHT22;16786;49.466;11.068;2022-12-07T00:41:25;2.80;99.90
29917;DHT22;16786;49.466;11.068;2022-12-07T00:43:54;2.80;99.90
29917;DHT22;16786;49.466;11.068;2022-12-07T00:46:22;2.80;99.90
29917;DHT22;16786;49.466;11.068;2022-12-07T00:48:50;2.80;99.90
29917;DHT22;16786;49.466;11.068;2022-12-07T00:51:20;2.80;99.90
29917;DHT22;16786;49.466;11.068;2022-12-07T00:53:48;2.70;99.90
29917;DHT22;16786;49.466;11.068;2022-12-07T00:56:24;2.80;99.90
29917;DHT22;16786;49.466;11.068;2022-12-07T00:58:57;2.70;99.90
29917;DHT22;16786;49.466;11.068;2022-12-07T01:01:26;2.70;99.90
29917;DHT22;16786;49.466;11.068;2022-12-07T01:03:54;2.70;99.90
29917;DHT22;16786;49.466;11.068;2022-12-07T01:06:25;2.80;99.90
29917;DHT22;16786;49.466;11.068;2022-12-07T01:08:53;2.80;99.90
29917;DHT22;16786;49.466;11.068;2022-12-07T01:11:24;2.80;99.90
29917;DHT22;16786;49.466;11.068;2022-12-07T01:13:53;2.70;99.90
29917;DHT22;16786;49.466;11.068;2022-12-07T01:16:23;2.70;99.90
29917;DHT22;16786;49.466;11.068;2022-12-07T01:18:53;2.70;99.90
29917;DHT22;16786;49.466;11.068;2022-12-07T01:21:24;2.80;99.90
29917;DHT22;16786;49.466;11.068;2022-12-07T01:23:52;2.80;99.90
29917;DHT22;16786;49.466;11.068;2022-12-07T01:26:21;2.80;99.90
29917;DHT22;16786;49.466;11.068;2022-12-07T01:28:49;2.70;99.90
29917;DHT22;16786;49.466;11.068;2022-12-07T01:31:19;2.70;99.90
29917;DHT22;16786;49.466;11.068;2022-12-07T01:33:50;2.80;99.90
29917;DHT22;16786;49.466;11.068;2022-12-07T01:36:20;2.70;99.90
29917;DHT22;16786;49.466;11.068;2022-12-07T01:38:50;2.70;99.90
29917;DHT22;16786;49.466;11.068;2022-12-07T01:41:21;2.70;99.90
29917;DHT22;16786;49.466;11.068;2022-12-07T01:44:15;2.70;99.90
29917;DHT22;16786;49.466;11.068;2022-12-07T01:47:00;2.70;99.90
29917;DHT22;16786;49.466;11.068;2022-12-07T01:49:35;2.70;99.90
29917;DHT22;16786;49.466;11.068;2022-12-07T01:52:22;2.70;99.90
29917;DHT22;16786;49.466;11.068;2022-12-07T01:55:14;2.70;99.90
29917;DHT22;16786;49.466;11.068;2022-12-07T01:57:43;2.70;99.90
29917;DHT22;16786;49.466;11.068;2022-12-07T02:00:12;2.80;99.90
29917;DHT22;16786;49.466;11.068;2022-12-07T02:05:11;2.70;99.90
29917;DHT22;16786;49.466;11.068;2022-12-07T02:07:39;2.70;99.90
29917;DHT22;16786;49.466;11.068;2022-12-07T02:12:57;2.80;99.90
29917;DHT22;16786;49.466;11.068;2022-12-07T02:15:33;2.70;99.90
29917;DHT22;16786;49.466;11.068;2022-12-07T02:30:00;2.70;99.90
29917;DHT22;16786;49.466;11.068;2022-12-07T02:35:10;2.80;99.90
29917;DHT22;16786;49.466;11.068;2022-12-07T02:40:36;2.80;99.90
29917;DHT22;16786;49.466;11.068;2022-12-07T02:45:46;2.80;99.90
29917;DHT22;16786;49.466;11.068;2022-12-07T02:48:16;2.70;99.90
29917;DHT22;16786;49.466;11.068;2022-12-07T02:50:48;2.70;99.90
29917;DHT22;16786;49.466;11.068;2022-12-07T02:53:41;2.80;99.90
29917;DHT22;16786;49.466;11.068;2022-12-07T03:04:42;2.70;99.90
29917;DHT22;16786;49.466;11.068;2022-12-07T03:09:55;2.40;99.90
29917;DHT22;16786;49.466;11.068;2022-12-07T03:15:33;2.30;99.90
29917;DHT22;16786;49.466;11.068;2022-12-07T03:18:04;2.30;99.90
29917;DHT22;16786;49.466;11.068;2022-12-07T03:20:32;2.20;99.90
29917;DHT22;16786;49.466;11.068;2022-12-07T03:23:05;2.10;99.90
29917;DHT22;16786;49.466;11.068;2022-12-07T03:25:34;2.10;99.90
29917;DHT22;16786;49.466;11.068;2022-12-07T03:28:05;2.10;99.90
29917;DHT22;16786;49.466;11.068;2022-12-07T03:30:55;2.20;99.90
29917;DHT22;16786;49.466;11.068;2022-12-07T03:33:59;2.30;99.90
29917;DHT22;16786;49.466;11.068;2022-12-07T03:36:50;2.20;99.90
29917;DHT22;16786;49.466;11.068;2022-12-07T03:41:49;2.20;99.90
29917;DHT22;16786;49.466;11.068;2022-12-07T03:44:17;2.30;99.90
29917;DHT22;16786;49.466;11.068;2022-12-07T03:52:52;2.20;99.90
29917;DHT22;16786;49.466;11.068;2022-12-07T03:55:29;2.10;99.90
29917;DHT22;16786;49.466;11.068;2022-12-07T03:58:06;2.10;99.90
29917;DHT22;16786;49.466;11.068;2022-12-07T04:00:35;2.00;99.90
29917;DHT22;16786;49.466;11.068;2022-12-07T04:03:03;1.90;99.90
29917;DHT22;16786;49.466;11.068;2022-12-07T04:05:30;1.90;99.90
29917;DHT22;16786;49.466;11.068;2022-12-07T04:07:57;1.80;99.90
29917;DHT22;16786;49.466;11.068;2022-12-07T04:10:25;1.80;99.90
29917;DHT22;16786;49.466;11.068;2022-12-07T04:12:52;1.80;99.90
29917;DHT22;16786;49.466;11.068;2022-12-07T04:15:19;1.70;99.90
29917;DHT22;16786;49.466;11.068;2022-12-07T04:17:47;1.70;99.90
29917;DHT22;16786;49.466;11.068;2022-12-07T04:20:14;1.70;99.90
29917;DHT22;16786;49.466;11.068;2022-12-07T04:22:42;1.80;99.90
29917;DHT22;16786;49.466;11.068;2022-12-07T04:25:09;1.80;99.90
29917;DHT22;16786;49.466;11.068;2022-12-07T04:27:36;1.80;99.90
29917;DHT22;16786;49.466;11.068;2022-12-07T04:30:04;1.80;99.90
29917;DHT22;16786;49.466;11.068;2022-12-07T04:32:31;1.80;99.90
29917;DHT22;16786;49.466;11.068;2022-12-07T04:34:59;1.70;99.90
29917;DHT22;16786;49.466;11.068;2022-12-07T04:37:26;1.70;99.90
29917;DHT22;16786;49.466;11.068;2022-12-07T04:39:53;1.70;99.90
29917;DHT22;16786;49.466;11.068;2022-12-07T04:42:21;1.70;99.90
29917;DHT22;16786;49.466;11.068;2022-12-07T04:44:48;1.70;99.90
29917;DHT22;16786;49.466;11.068;2022-12-07T04:47:15;1.80;99.90
29917;DHT22;16786;49.466;11.068;2022-12-07T04:49:43;1.80;99.90
29917;DHT22;16786;49.466;11.068;2022-12-07T04:52:10;1.80;99.90
29917;DHT22;16786;49.466;11.068;2022-12-07T04:54:37;1.80;99.90
29917;DHT22;16786;49.466;11.068;2022-12-07T04:57:04;1.90;99.90
29917;DHT22;16786;49.466;11.068;2022-12-07T04:59:32;1.90;99.90
29917;DHT22;16786;49.466;11.068;2022-12-07T05:01:59;1.90;99.90
29917;DHT22;16786;49.466;11.068;2022-12-07T05:04:26;1.90;99.90
29917;DHT22;16786;49.466;11.068;2022-12-07T05:06:54;2.00;99.90
29917;DHT22;16786;49.466;11.068;2022-12-07T05:09:21;1.90;99.90
29917;DHT22;16786;49.466;11.068;2022-12-07T05:11:48;1.90;99.90
29917;DHT22;16786;49.466;11.068;2022-12-07T05:14:18;1.90;99.90
29917;DHT22;16786;49.466;11.068;2022-12-07T05:16:47;1.90;99.90
29917;DHT22;16786;49.466;11.068;2022-12-07T05:19:17;2.00;99.90
29917;DHT22;16786;49.466;11.068;2022-12-07T05:21:44;1.90;99.90
29917;DHT22;16786;49.466;11.068;2022-12-07T05:24:13;1.90;99.90
29917;DHT22;16786;49.466;11.068;2022-12-07T05:26:42;2.00;99.90
29917;DHT22;16786;49.466;11.068;2022-12-07T05:29:14;2.00;99.90
29917;DHT22;16786;49.466;11.068;2022-12-07T05:31:43;2.00;99.90
29917;DHT22;16786;49.466;11.068;2022-12-07T05:34:11;2.00;99.90
29917;DHT22;16786;49.466;11.068;2022-12-07T05:36:38;2.00;99.90
29917;DHT22;16786;49.466;11.068;2022-12-07T05:39:06;2.00;99.90
29917;DHT22;16786;49.466;11.068;2022-12-07T05:41:34;2.00;99.90
29917;DHT22;16786;49.466;11.068;2022-12-07T05:44:20;2.00;99.90
29917;DHT22;16786;49.466;11.068;2022-12-07T05:46:47;2.00;99.90
29917;DHT22;16786;49.466;11.068;2022-12-07T05:49:14;2.00;99.90
29917;DHT22;16786;49.466;11.068;2022-12-07T05:51:41;2.00;99.90
29917;DHT22;16786;49.466;11.068;2022-12-07T05:54:09;2.00;99.90
29917;DHT22;16786;49.466;11.068;2022-12-07T05:56:36;2.00;99.90
29917;DHT22;16786;49.466;11.068;2022-12-07T05:59:04;2.00;99.90
29917;DHT22;16786;49.466;11.068;2022-12-07T06:02:10;2.00;99.90
29917;DHT22;16786;49.466;11.068;2022-12-07T06:04:41;1.90;99.90
29917;DHT22;16786;49.466;11.068;2022-12-07T06:07:10;1.90;99.90
29917;DHT22;16786;49.466;11.068;2022-12-07T06:09:37;1.90;99.90
29917;DHT22;16786;49.466;11.068;2022-12-07T06:12:06;2.00;99.90
29917;DHT22;16786;49.466;11.068;2022-12-07T06:14:52;1.90;99.90
29917;DHT22;16786;49.466;11.068;2022-12-07T06:17:19;1.90;99.90
29917;DHT22;16786;49.466;11.068;2022-12-07T06:19:46;1.90;99.90
29917;DHT22;16786;49.466;11.068;2022-12-07T06:22:14;1.90;99.90
29917;DHT22;16786;49.466;11.068;2022-12-07T06:24:43;1.90;99.90
29917;DHT22;16786;49.466;11.068;2022-12-07T06:27:11;2.00;99.90
29917;DHT22;16786;49.466;11.068;2022-12-07T06:29:38;2.00;99.90
29917;DHT22;16786;49.466;11.068;2022-12-07T06:32:05;2.00;99.90
29917;DHT22;16786;49.466;11.068;2022-12-07T06:34:33;2.00;99.90
29917;DHT22;16786;49.466;11.068;2022-12-07T06:37:00;2.00;99.90
29917;DHT22;16786;49.466;11.068;2022-12-07T06:39:28;2.00;99.90
29917;DHT22;16786;49.466;11.068;2022-12-07T06:41:57;2.10;99.90
29917;DHT22;16786;49.466;11.068;2022-12-07T06:44:24;2.10;99.90
29917;DHT22;16786;49.466;11.068;2022-12-07T06:46:52;2.20;99.90
29917;DHT22;16786;49.466;11.068;2022-12-07T06:49:38;2.20;99.90
29917;DHT22;16786;49.466;11.068;2022-12-07T06:52:05;2.20;99.90
29917;DHT22;16786;49.466;11.068;2022-12-07T06:54:33;2.20;99.90
29917;DHT22;16786;49.466;11.068;2022-12-07T06:57:00;2.20;99.90
29917;DHT22;16786;49.466;11.068;2022-12-07T06:59:27;2.30;99.90
29917;DHT22;16786;49.466;11.068;2022-12-07T07:01:54;2.30;99.90
29917;DHT22;16786;49.466;11.068;2022-12-07T07:04:22;2.30;99.90
29917;DHT22;16786;49.466;11.068;2022-12-07T07:06:49;2.30;99.90
29917;DHT22;16786;49.466;11.068;2022-12-07T07:09:24;2.30;99.90
29917;DHT22;16786;49.466;11.068;2022-12-07T07:11:51;2.40;99.90
29917;DHT22;16786;49.466;11.068;2022-12-07T07:14:18;2.40;99.90
29917;DHT22;16786;49.466;11.068;2022-12-07T07:16:46;2.40;99.90
29917;DHT22;16786;49.466;11.068;2022-12-07T07:19:13;2.40;99.90
29917;DHT22;16786;49.466;11.068;2022-12-07T07:21:41;2.40;99.90
29917;DHT22;16786;49.466;11.068;2022-12-07T07:24:08;2.50;99.90
29917;DHT22;16786;49.466;11.068;2022-12-07T07:26:35;2.40;99.90
29917;DHT22;16786;49.466;11.068;2022-12-07T07:29:03;2.40;99.90
29917;DHT22;16786;49.466;11.068;2022-12-07T07:31:30;2.40;99.90
29917;DHT22;16786;49.466;11.068;2022-12-07T07:33:58;2.50;99.90
29917;DHT22;16786;49.466;11.068;2022-12-07T07:36:25;2.50;99.90
29917;DHT22;16786;49.466;11.068;2022-12-07T07:38:52;2.60;99.90
29917;DHT22;16786;49.466;11.068;2022-12-07T07:41:19;2.60;99.90
29917;DHT22;16786;49.466;11.068;2022-12-07T07:43:47;2.60;99.90
29917;DHT22;16786;49.466;11.068;2022-12-07T07:46:14;2.60;99.90
29917;DHT22;16786;49.466;11.068;2022-12-07T07:48:41;2.60;99.90
29917;DHT22;16786;49.466;11.068;2022-12-07T07:51:09;2.60;99.90
29917;DHT22;16786;49.466;11.068;2022-12-07T07:53:36;2.80;99.90
29917;DHT22;16786;49.466;11.068;2022-12-07T07:56:03;2.80;99.90
29917;DHT22;16786;49.466;11.068;2022-12-07T07:58:31;2.80;99.90
29917;DHT22;16786;49.466;11.068;2022-12-07T08:01:04;2.80;99.90
29917;DHT22;16786;49.466;11.068;2022-12-07T08:03:31;2.80;99.90
29917;DHT22;16786;49.466;11.068;2022-12-07T08:05:59;2.80;99.90
29917;DHT22;16786;49.466;11.068;2022-12-07T08:08:26;2.90;99.90
29917;DHT22;16786;49.466;11.068;2022-12-07T08:10:53;2.90;99.90
29917;DHT22;16786;49.466;11.068;2022-12-07T08:13:21;3.00;99.90
29917;DHT22;16786;49.466;11.068;2022-12-07T08:15:56;3.10;99.90
29917;DHT22;16786;49.466;11.068;2022-12-07T08:18:24;3.10;99.90
29917;DHT22;16786;49.466;11.068;2022-12-07T08:20:51;3.00;99.90
29917;DHT22;16786;49.466;11.068;2022-12-07T08:23:18;3.00;99.90
29917;DHT22;16786;49.466;11.068;2022-12-07T08:25:48;3.00;99.90
29917;DHT22;16786;49.466;11.068;2022-12-07T08:28:16;3.00;99.90
29917;DHT22;16786;49.466;11.068;2022-12-07T08:30:43;3.00;99.90
29917;DHT22;16786;49.466;11.068;2022-12-07T08:33:11;3.00;99.90
29917;DHT22;16786;49.466;11.068;2022-12-07T08:35:38;3.00;99.90
29917;DHT22;16786;49.466;11.068;2022-12-07T08:38:05;3.10;99.90
29917;DHT22;16786;49.466;11.068;2022-12-07T08:40:33;3.10;99.90
29917;DHT22;16786;49.466;11.068;2022-12-07T08:43:00;3.20;99.90
29917;DHT22;16786;49.466;11.068;2022-12-07T08:45:27;3.20;99.90
29917;DHT22;16786;49.466;11.068;2022-12-07T08:48:04;3.20;99.90
29917;DHT22;16786;49.466;11.068;2022-12-07T08:50:33;3.30;99.90
29917;DHT22;16786;49.466;11.068;2022-12-07T08:53:02;3.20;99.90
29917;DHT22;16786;49.466;11.068;2022-12-07T08:55:31;3.30;99.90
29917;DHT22;16786;49.466;11.068;2022-12-07T08:58:00;3.30;99.90
29917;DHT22;16786;49.466;11.068;2022-12-07T09:00:29;3.30;99.90
29917;DHT22;16786;49.466;11.068;2022-12-07T09:02:56;3.30;99.90
29917;DHT22;16786;49.466;11.068;2022-12-07T09:05:23;3.30;99.90
29917;DHT22;16786;49.466;11.068;2022-12-07T09:07:55;3.40;99.90
29917;DHT22;16786;49.466;11.068;2022-12-07T09:10:24;3.40;99.90
29917;DHT22;16786;49.466;11.068;2022-12-07T09:12:53;3.40;99.90
29917;DHT22;16786;49.466;11.068;2022-12-07T09:15:20;3.50;99.90
29917;DHT22;16786;49.466;11.068;2022-12-07T09:17:48;3.50;99.90
29917;DHT22;16786;49.466;11.068;2022-12-07T09:20:15;3.50;99.90
29917;DHT22;16786;49.466;11.068;2022-12-07T09:22:42;3.40;99.90
29917;DHT22;16786;49.466;11.068;2022-12-07T09:25:09;3.30;99.90
29917;DHT22;16786;49.466;11.068;2022-12-07T09:27:37;3.20;99.90
29917;DHT22;16786;49.466;11.068;2022-12-07T09:30:05;3.20;99.90
29917;DHT22;16786;49.466;11.068;2022-12-07T09:32:35;3.20;99.90
29917;DHT22;16786;49.466;11.068;2022-12-07T09:35:04;3.20;99.90
29917;DHT22;16786;49.466;11.068;2022-12-07T09:37:31;3.20;99.90
29917;DHT22;16786;49.466;11.068;2022-12-07T09:40:03;3.20;99.90
29917;DHT22;16786;49.466;11.068;2022-12-07T09:42:35;3.20;99.90
29917;DHT22;16786;49.466;11.068;2022-12-07T09:45:04;3.20;99.90
29917;DHT22;16786;49.466;11.068;2022-12-07T09:47:33;3.20;99.90
29917;DHT22;16786;49.466;11.068;2022-12-07T09:50:15;3.30;99.90
29917;DHT22;16786;49.466;11.068;2022-12-07T09:52:44;3.30;99.90
29917;DHT22;16786;49.466;11.068;2022-12-07T09:55:14;3.30;99.90
29917;DHT22;16786;49.466;11.068;2022-12-07T09:57:43;3.30;99.90
29917;DHT22;16786;49.466;11.068;2022-12-07T10:00:13;3.10;99.90
29917;DHT22;16786;49.466;11.068;2022-12-07T10:02:44;3.10;99.90
29917;DHT22;16786;49.466;11.068;2022-12-07T10:05:16;3.20;99.90
29917;DHT22;16786;49.466;11.068;2022-12-07T10:07:50;3.20;99.90
29917;DHT22;16786;49.466;11.068;2022-12-07T10:10:24;3.20;99.90
29917;DHT22;16786;49.466;11.068;2022-12-07T10:13:02;3.20;99.90
29917;DHT22;16786;49.466;11.068;2022-12-07T10:15:46;3.20;99.90
29917;DHT22;16786;49.466;11.068;2022-12-07T10:21:15;3.20;99.90
29917;DHT22;16786;49.466;11.068;2022-12-07T10:29:36;3.40;99.90
29917;DHT22;16786;49.466;11.068;2022-12-07T10:32:21;3.50;99.90
29917;DHT22;16786;49.466;11.068;2022-12-07T10:35:20;3.60;99.90
29917;DHT22;16786;49.466;11.068;2022-12-07T10:37:49;3.60;99.90
29917;DHT22;16786;49.466;11.068;2022-12-07T10:40:36;3.70;99.90
29917;DHT22;16786;49.466;11.068;2022-12-07T10:57:04;3.90;99.90
29917;DHT22;16786;49.466;11.068;2022-12-07T11:02:46;3.80;99.90
29917;DHT22;16786;49.466;11.068;2022-12-07T11:05:45;3.90;99.90
29917;DHT22;16786;49.466;11.068;2022-12-07T11:11:24;3.80;99.90
29917;DHT22;16786;49.466;11.068;2022-12-07T11:19:46;3.80;99.90
29917;DHT22;16786;49.466;11.068;2022-12-07T11:22:20;3.80;99.90
29917;DHT22;16786;49.466;11.068;2022-12-07T11:25:26;3.90;99.90
29917;DHT22;16786;49.466;11.068;2022-12-07T11:33:16;3.90;99.90
29917;DHT22;16786;49.466;11.068;2022-12-07T11:38:59;3.90;99.90
29917;DHT22;16786;49.466;11.068;2022-12-07T11:41:34;3.90;99.90
29917;DHT22;16786;49.466;11.068;2022-12-07T11:47:13;3.90;99.90
29917;DHT22;16786;49.466;11.068;2022-12-07T11:55:21;3.80;99.90
29917;DHT22;16786;49.466;11.068;2022-12-07T11:57:53;3.80;99.90
29917;DHT22;16786;49.466;11.068;2022-12-07T12:00:23;3.80;99.90
29917;DHT22;16786;49.466;11.068;2022-12-07T12:03:12;3.80;99.90
29917;DHT22;16786;49.466;11.068;2022-12-07T12:05:43;3.80;99.90
29917;DHT22;16786;49.466;11.068;2022-12-07T12:08:18;3.80;99.90
29917;DHT22;16786;49.466;11.068;2022-12-07T12:11:15;3.90;99.90
29917;DHT22;16786;49.466;11.068;2022-12-07T12:19:33;3.90;99.90
29917;DHT22;16786;49.466;11.068;2022-12-07T12:22:32;3.90;99.90
29917;DHT22;16786;49.466;11.068;2022-12-07T12:25:12;3.80;99.90
29917;DHT22;16786;49.466;11.068;2022-12-07T12:27:46;3.80;99.90
29917;DHT22;16786;49.466;11.068;2022-12-07T12:30:25;3.80;99.90
29917;DHT22;16786;49.466;11.068;2022-12-07T12:33:03;3.80;99.90
29917;DHT22;16786;49.466;11.068;2022-12-07T12:35:33;3.80;99.90
29917;DHT22;16786;49.466;11.068;2022-12-07T12:38:30;3.90;99.90
29917;DHT22;16786;49.466;11.068;2022-12-07T12:40:58;3.90;99.90
29917;DHT22;16786;49.466;11.068;2022-12-07T12:43:50;3.90;99.90
29917;DHT22;16786;49.466;11.068;2022-12-07T13:01:51;3.90;99.90
29917;DHT22;16786;49.466;11.068;2022-12-07T13:05:14;4.00;99.90
29917;DHT22;16786;49.466;11.068;2022-12-07T13:07:12;3.90;99.90
29917;DHT22;16786;49.466;11.068;2022-12-07T13:09:44;3.90;99.90
29917;DHT22;16786;49.466;11.068;2022-12-07T13:12:15;3.80;99.90
29917;DHT22;16786;49.466;11.068;2022-12-07T13:14:57;3.80;99.90
29917;DHT22;16786;49.466;11.068;2022-12-07T13:20:05;3.80;99.90
29917;DHT22;16786;49.466;11.068;2022-12-07T13:22:46;3.80;99.90
29917;DHT22;16786;49.466;11.068;2022-12-07T13:28:17;3.80;99.90
29917;DHT22;16786;49.466;11.068;2022-12-07T13:33:24;3.90;99.90
29917;DHT22;16786;49.466;11.068;2022-12-07T13:35:55;3.80;99.90
29917;DHT22;16786;49.466;11.068;2022-12-07T13:38:32;3.80;99.90
29917;DHT22;16786;49.466;11.068;2022-12-07T13:43:52;3.70;99.90
29917;DHT22;16786;49.466;11.068;2022-12-07T13:46:25;3.70;99.90
29917;DHT22;16786;49.466;11.068;2022-12-07T13:48:54;3.70;99.90
29917;DHT22;16786;49.466;11.068;2022-12-07T13:51:27;3.70;99.90
29917;DHT22;16786;49.466;11.068;2022-12-07T13:54:07;3.70;99.90
29917;DHT22;16786;49.466;11.068;2022-12-07T13:56:36;3.80;99.90
29917;DHT22;16786;49.466;11.068;2022-12-07T13:59:09;3.70;99.90
29917;DHT22;16786;49.466;11.068;2022-12-07T14:01:37;3.80;99.90
29917;DHT22;16786;49.466;11.068;2022-12-07T14:04:29;3.70;99.90
29917;DHT22;16786;49.466;11.068;2022-12-07T14:06:57;3.80;99.90
29917;DHT22;16786;49.466;11.068;2022-12-07T14:09:26;3.80;99.90
29917;DHT22;16786;49.466;11.068;2022-12-07T14:11:56;3.80;99.90
29917;DHT22;16786;49.466;11.068;2022-12-07T14:14:30;4.00;99.90
29917;DHT22;16786;49.466;11.068;2022-12-07T14:17:15;4.00;99.90
29917;DHT22;16786;49.466;11.068;2022-12-07T14:19:57;3.90;99.90
29917;DHT22;16786;49.466;11.068;2022-12-07T14:27:47;4.00;99.90
29917;DHT22;16786;49.466;11.068;2022-12-07T14:30:17;4.00;99.90
29917;DHT22;16786;49.466;11.068;2022-12-07T14:32:48;3.90;99.90
29917;DHT22;16786;49.466;11.068;2022-12-07T14:35:17;3.90;99.90
29917;DHT22;16786;49.466;11.068;2022-12-07T14:37:47;3.70;99.90
29917;DHT22;16786;49.466;11.068;2022-12-07T14:40:22;3.70;99.90
29917;DHT22;16786;49.466;11.068;2022-12-07T14:43:02;3.60;99.90
29917;DHT22;16786;49.466;11.068;2022-12-07T14:45:29;3.60;99.90
29917;DHT22;16786;49.466;11.068;2022-12-07T14:47:57;3.40;99.90
29917;DHT22;16786;49.466;11.068;2022-12-07T14:50:49;3.30;99.90
29917;DHT22;16786;49.466;11.068;2022-12-07T14:53:40;3.20;99.90
29917;DHT22;16786;49.466;11.068;2022-12-07T14:56:09;3.10;99.90
29917;DHT22;16786;49.466;11.068;2022-12-07T14:58:37;3.00;99.90
29917;DHT22;16786;49.466;11.068;2022-12-07T15:01:04;2.90;99.90
29917;DHT22;16786;49.466;11.068;2022-12-07T15:03:31;2.90;99.90
29917;DHT22;16786;49.466;11.068;2022-12-07T15:06:01;2.70;99.90
29917;DHT22;16786;49.466;11.068;2022-12-07T15:08:30;2.70;99.90
29917;DHT22;16786;49.466;11.068;2022-12-07T15:10:57;2.70;99.90
29917;DHT22;16786;49.466;11.068;2022-12-07T15:13:25;2.70;99.90
29917;DHT22;16786;49.466;11.068;2022-12-07T15:16:13;2.70;99.90
29917;DHT22;16786;49.466;11.068;2022-12-07T15:18:42;2.70;99.90
29917;DHT22;16786;49.466;11.068;2022-12-07T15:21:29;2.70;99.90
29917;DHT22;16786;49.466;11.068;2022-12-07T15:23:56;2.70;99.90
29917;DHT22;16786;49.466;11.068;2022-12-07T15:26:23;2.70;99.90
29917;DHT22;16786;49.466;11.068;2022-12-07T15:28:53;2.80;99.90
29917;DHT22;16786;49.466;11.068;2022-12-07T15:31:21;2.80;99.90
29917;DHT22;16786;49.466;11.068;2022-12-07T15:34:08;2.90;99.90
29917;DHT22;16786;49.466;11.068;2022-12-07T15:36:35;3.00;99.90
29917;DHT22;16786;49.466;11.068;2022-12-07T15:39:03;3.10;99.90
29917;DHT22;16786;49.466;11.068;2022-12-07T15:41:40;3.10;99.90
29917;DHT22;16786;49.466;11.068;2022-12-07T15:44:13;3.30;99.90
29917;DHT22;16786;49.466;11.068;2022-12-07T15:46:59;3.30;99.90
29917;DHT22;16786;49.466;11.068;2022-12-07T15:49:27;3.40;99.90
29917;DHT22;16786;49.466;11.068;2022-12-07T15:51:55;3.40;99.90
29917;DHT22;16786;49.466;11.068;2022-12-07T15:54:25;3.40;99.90
29917;DHT22;16786;49.466;11.068;2022-12-07T15:56:53;3.30;99.90
29917;DHT22;16786;49.466;11.068;2022-12-07T15:59:21;3.30;99.90
29917;DHT22;16786;49.466;11.068;2022-12-07T16:01:49;3.30;99.90
29917;DHT22;16786;49.466;11.068;2022-12-07T16:04:16;3.30;99.90
29917;DHT22;16786;49.466;11.068;2022-12-07T16:06:44;3.40;99.90
29917;DHT22;16786;49.466;11.068;2022-12-07T16:09:12;3.40;99.90
29917;DHT22;16786;49.466;11.068;2022-12-07T16:11:39;3.40;99.90
29917;DHT22;16786;49.466;11.068;2022-12-07T16:14:06;3.40;99.90
29917;DHT22;16786;49.466;11.068;2022-12-07T16:16:34;3.40;99.90
29917;DHT22;16786;49.466;11.068;2022-12-07T16:19:01;3.40;99.90
29917;DHT22;16786;49.466;11.068;2022-12-07T16:21:30;3.40;99.90
29917;DHT22;16786;49.466;11.068;2022-12-07T16:23:58;3.40;99.90
29917;DHT22;16786;49.466;11.068;2022-12-07T16:26:26;3.40;99.90
29917;DHT22;16786;49.466;11.068;2022-12-07T16:28:54;3.40;99.90
29917;DHT22;16786;49.466;11.068;2022-12-07T16:31:24;3.40;99.90
29917;DHT22;16786;49.466;11.068;2022-12-07T16:33:57;3.40;99.90
29917;DHT22;16786;49.466;11.068;2022-12-07T16:36:25;3.40;99.90
29917;DHT22;16786;49.466;11.068;2022-12-07T16:39:14;3.30;99.90
29917;DHT22;16786;49.466;11.068;2022-12-07T16:41:41;3.30;99.90
29917;DHT22;16786;49.466;11.068;2022-12-07T16:44:11;3.30;99.90
29917;DHT22;16786;49.466;11.068;2022-12-07T16:46:39;3.20;99.90
29917;DHT22;16786;49.466;11.068;2022-12-07T16:49:11;3.20;99.90
29917;DHT22;16786;49.466;11.068;2022-12-07T16:51:38;3.10;99.90
29917;DHT22;16786;49.466;11.068;2022-12-07T16:54:06;3.20;99.90
29917;DHT22;16786;49.466;11.068;2022-12-07T16:56:33;3.10;99.90
29917;DHT22;16786;49.466;11.068;2022-12-07T16:59:01;3.00;99.90
29917;DHT22;16786;49.466;11.068;2022-12-07T17:01:29;3.00;99.90
29917;DHT22;16786;49.466;11.068;2022-12-07T17:03:58;3.00;99.90
29917;DHT22;16786;49.466;11.068;2022-12-07T17:06:27;3.00;99.90
29917;DHT22;16786;49.466;11.068;2022-12-07T17:08:56;3.00;99.90
29917;DHT22;16786;49.466;11.068;2022-12-07T17:11:28;3.00;99.90
29917;DHT22;16786;49.466;11.068;2022-12-07T17:13:55;3.00;99.90
29917;DHT22;16786;49.466;11.068;2022-12-07T17:16:41;3.00;99.90
29917;DHT22;16786;49.466;11.068;2022-12-07T17:19:12;3.00;99.90
29917;DHT22;16786;49.466;11.068;2022-12-07T17:21:39;3.00;99.90
29917;DHT22;16786;49.466;11.068;2022-12-07T17:24:09;2.90;99.90
29917;DHT22;16786;49.466;11.068;2022-12-07T17:26:37;2.90;99.90
29917;DHT22;16786;49.466;11.068;2022-12-07T17:29:06;2.80;99.90
29917;DHT22;16786;49.466;11.068;2022-12-07T17:31:35;2.80;99.90
29917;DHT22;16786;49.466;11.068;2022-12-07T17:34:03;2.80;99.90
29917;DHT22;16786;49.466;11.068;2022-12-07T17:36:32;2.70;99.90
29917;DHT22;16786;49.466;11.068;2022-12-07T17:38:59;2.70;99.90
29917;DHT22;16786;49.466;11.068;2022-12-07T17:41:27;2.70;99.90
29917;DHT22;16786;49.466;11.068;2022-12-07T17:44:16;2.60;99.90
29917;DHT22;16786;49.466;11.068;2022-12-07T17:46:46;2.60;99.90
29917;DHT22;16786;49.466;11.068;2022-12-07T17:49:13;2.70;99.90
29917;DHT22;16786;49.466;11.068;2022-12-07T17:51:41;2.60;99.90
29917;DHT22;16786;49.466;11.068;2022-12-07T17:54:28;2.70;99.90
29917;DHT22;16786;49.466;11.068;2022-12-07T17:56:56;2.70;99.90
29917;DHT22;16786;49.466;11.068;2022-12-07T17:59:24;2.70;99.90
29917;DHT22;16786;49.466;11.068;2022-12-07T18:01:52;2.80;99.90
29917;DHT22;16786;49.466;11.068;2022-12-07T18:04:19;2.80;99.90
29917;DHT22;16786;49.466;11.068;2022-12-07T18:06:47;2.80;99.90
29917;DHT22;16786;49.466;11.068;2022-12-07T18:09:19;2.90;99.90
29917;DHT22;16786;49.466;11.068;2022-12-07T18:11:48;2.90;99.90
29917;DHT22;16786;49.466;11.068;2022-12-07T18:14:15;2.80;99.90